sensor_id;sensor_type;location;lat;lon;timestamp;P1;durP1;ratioP1;P2;durP2;ratioP2
23718;SDS011;43322;52.230;5.702;2022-12-29T00:00:52;5.25;;;4.93;;
23718;SDS011;43322;52.230;5.702;2022-12-29T00:03:19;5.20;;;4.80;;
23718;SDS011;43322;52.230;5.702;2022-12-29T00:05:45;5.20;;;4.80;;
23718;SDS011;43322;52.230;5.702;2022-12-29T00:08:21;5.32;;;4.55;;
23718;SDS011;43322;52.230;5.702;2022-12-29T00:11:04;5.43;;;5.03;;
23718;SDS011;43322;52.230;5.702;2022-12-29T00:13:32;5.18;;;4.75;;
23718;SDS011;43322;52.230;5.702;2022-12-29T00:16:16;4.30;;;4.00;;
23718;SDS011;43322;52.230;5.702;2022-12-29T00:18:43;4.47;;;4.20;;
23718;SDS011;43322;52.230;5.702;2022-12-29T00:21:11;9.05;;;3.95;;
23718;SDS011;43322;52.230;5.702;2022-12-29T00:23:58;4.57;;;3.60;;
23718;SDS011;43322;52.230;5.702;2022-12-29T00:26:43;4.00;;;3.70;;
23718;SDS011;43322;52.230;5.702;2022-12-29T00:29:27;3.60;;;3.40;;
23718;SDS011;43322;52.230;5.702;2022-12-29T00:32:11;3.60;;;3.40;;
23718;SDS011;43322;52.230;5.702;2022-12-29T00:34:54;4.05;;;3.70;;
23718;SDS011;43322;52.230;5.702;2022-12-29T00:37:37;3.53;;;3.33;;
23718;SDS011;43322;52.230;5.702;2022-12-29T00:40:25;5.30;;;3.28;;
23718;SDS011;43322;52.230;5.702;2022-12-29T00:43:09;3.50;;;3.30;;
23718;SDS011;43322;52.230;5.702;2022-12-29T00:45:54;5.05;;;3.33;;
23718;SDS011;43322;52.230;5.702;2022-12-29T00:48:21;3.75;;;3.50;;
23718;SDS011;43322;52.230;5.702;2022-12-29T00:51:02;3.60;;;3.25;;
23718;SDS011;43322;52.230;5.702;2022-12-29T00:53:29;4.20;;;3.70;;
23718;SDS011;43322;52.230;5.702;2022-12-29T00:55:57;3.17;;;2.95;;
23718;SDS011;43322;52.230;5.702;2022-12-29T00:58:26;3.28;;;3.10;;
23718;SDS011;43322;52.230;5.702;2022-12-29T01:01:00;3.30;;;3.10;;
23718;SDS011;43322;52.230;5.702;2022-12-29T01:03:27;3.90;;;3.00;;
23718;SDS011;43322;52.230;5.702;2022-12-29T01:05:54;3.03;;;2.90;;
23718;SDS011;43322;52.230;5.702;2022-12-29T01:08:21;3.03;;;2.85;;
23718;SDS011;43322;52.230;5.702;2022-12-29T01:10:58;2.72;;;2.53;;
23718;SDS011;43322;52.230;5.702;2022-12-29T01:13:24;4.40;;;2.90;;
23718;SDS011;43322;52.230;5.702;2022-12-29T01:15:51;2.67;;;2.47;;
23718;SDS011;43322;52.230;5.702;2022-12-29T01:18:18;2.70;;;2.60;;
23718;SDS011;43322;52.230;5.702;2022-12-29T01:20:45;3.15;;;2.88;;
23718;SDS011;43322;52.230;5.702;2022-12-29T01:23:12;3.10;;;2.78;;
23718;SDS011;43322;52.230;5.702;2022-12-29T01:25:39;2.72;;;2.63;;
23718;SDS011;43322;52.230;5.702;2022-12-29T01:28:07;3.58;;;2.75;;
23718;SDS011;43322;52.230;5.702;2022-12-29T01:30:34;2.80;;;2.60;;
23718;SDS011;43322;52.230;5.702;2022-12-29T01:33:01;2.35;;;2.25;;
23718;SDS011;43322;52.230;5.702;2022-12-29T01:35:28;2.80;;;2.15;;
23718;SDS011;43322;52.230;5.702;2022-12-29T01:37:55;2.30;;;2.10;;
23718;SDS011;43322;52.230;5.702;2022-12-29T01:40:22;2.28;;;2.10;;
23718;SDS011;43322;52.230;5.702;2022-12-29T01:42:48;2.20;;;2.00;;
23718;SDS011;43322;52.230;5.702;2022-12-29T01:45:17;2.20;;;2.00;;
23718;SDS011;43322;52.230;5.702;2022-12-29T01:47:44;2.22;;;1.70;;
23718;SDS011;43322;52.230;5.702;2022-12-29T01:50:15;2.25;;;1.85;;
23718;SDS011;43322;52.230;5.702;2022-12-29T01:52:49;1.92;;;1.83;;
23718;SDS011;43322;52.230;5.702;2022-12-29T01:55:22;2.88;;;1.92;;
23718;SDS011;43322;52.230;5.702;2022-12-29T01:57:50;1.90;;;1.80;;
23718;SDS011;43322;52.230;5.702;2022-12-29T02:00:20;2.83;;;2.20;;
23718;SDS011;43322;52.230;5.702;2022-12-29T02:02:49;2.30;;;2.20;;
23718;SDS011;43322;52.230;5.702;2022-12-29T02:05:19;3.15;;;2.30;;
23718;SDS011;43322;52.230;5.702;2022-12-29T02:07:51;2.20;;;2.10;;
23718;SDS011;43322;52.230;5.702;2022-12-29T02:10:19;2.60;;;2.40;;
23718;SDS011;43322;52.230;5.702;2022-12-29T02:12:47;2.38;;;2.22;;
23718;SDS011;43322;52.230;5.702;2022-12-29T02:15:14;2.40;;;2.30;;
23718;SDS011;43322;52.230;5.702;2022-12-29T02:17:48;2.47;;;2.35;;
23718;SDS011;43322;52.230;5.702;2022-12-29T02:20:56;2.53;;;2.30;;
23718;SDS011;43322;52.230;5.702;2022-12-29T02:30:34;3.08;;;2.88;;
23718;SDS011;43322;52.230;5.702;2022-12-29T02:33:07;2.90;;;2.70;;
23718;SDS011;43322;52.230;5.702;2022-12-29T02:35:48;2.70;;;2.60;;
23718;SDS011;43322;52.230;5.702;2022-12-29T02:38:25;3.55;;;2.70;;
23718;SDS011;43322;52.230;5.702;2022-12-29T02:41:05;3.28;;;3.00;;
23718;SDS011;43322;52.230;5.702;2022-12-29T02:43:37;2.53;;;2.40;;
23718;SDS011;43322;52.230;5.702;2022-12-29T02:46:13;2.50;;;2.30;;
23718;SDS011;43322;52.230;5.702;2022-12-29T02:48:50;2.38;;;2.20;;
23718;SDS011;43322;52.230;5.702;2022-12-29T02:51:23;3.78;;;2.35;;
23718;SDS011;43322;52.230;5.702;2022-12-29T02:53:55;4.93;;;2.45;;
23718;SDS011;43322;52.230;5.702;2022-12-29T02:56:40;4.25;;;2.25;;
23718;SDS011;43322;52.230;5.702;2022-12-29T02:59:07;3.15;;;1.60;;
23718;SDS011;43322;52.230;5.702;2022-12-29T03:01:40;2.33;;;1.65;;
23718;SDS011;43322;52.230;5.702;2022-12-29T03:04:31;2.20;;;1.40;;
23718;SDS011;43322;52.230;5.702;2022-12-29T03:07:08;1.38;;;1.27;;
23718;SDS011;43322;52.230;5.702;2022-12-29T03:09:43;2.45;;;1.40;;
23718;SDS011;43322;52.230;5.702;2022-12-29T03:12:27;3.08;;;1.45;;
23718;SDS011;43322;52.230;5.702;2022-12-29T03:15:17;3.95;;;1.67;;
23718;SDS011;43322;52.230;5.702;2022-12-29T03:18:08;1.85;;;1.20;;
23718;SDS011;43322;52.230;5.702;2022-12-29T03:20:41;2.78;;;1.50;;
23718;SDS011;43322;52.230;5.702;2022-12-29T03:23:15;1.60;;;1.00;;
23718;SDS011;43322;52.230;5.702;2022-12-29T03:25:45;1.50;;;0.98;;
23718;SDS011;43322;52.230;5.702;2022-12-29T03:28:15;1.58;;;1.02;;
23718;SDS011;43322;52.230;5.702;2022-12-29T03:30:46;1.73;;;1.30;;
23718;SDS011;43322;52.230;5.702;2022-12-29T03:33:16;1.92;;;1.40;;
23718;SDS011;43322;52.230;5.702;2022-12-29T03:35:46;1.48;;;1.08;;
23718;SDS011;43322;52.230;5.702;2022-12-29T03:38:18;2.85;;;1.45;;
23718;SDS011;43322;52.230;5.702;2022-12-29T03:40:50;3.00;;;1.30;;
23718;SDS011;43322;52.230;5.702;2022-12-29T03:43:21;3.60;;;1.70;;
23718;SDS011;43322;52.230;5.702;2022-12-29T03:45:48;1.80;;;1.70;;
23718;SDS011;43322;52.230;5.702;2022-12-29T03:48:17;2.17;;;1.40;;
23718;SDS011;43322;52.230;5.702;2022-12-29T03:50:44;3.20;;;1.45;;
23718;SDS011;43322;52.230;5.702;2022-12-29T03:53:10;2.13;;;2.03;;
23718;SDS011;43322;52.230;5.702;2022-12-29T03:55:37;3.72;;;1.70;;
23718;SDS011;43322;52.230;5.702;2022-12-29T03:58:04;1.77;;;1.40;;
23718;SDS011;43322;52.230;5.702;2022-12-29T04:00:31;1.90;;;1.77;;
23718;SDS011;43322;52.230;5.702;2022-12-29T04:02:58;1.85;;;1.73;;
23718;SDS011;43322;52.230;5.702;2022-12-29T04:05:26;2.45;;;1.92;;
23718;SDS011;43322;52.230;5.702;2022-12-29T04:07:53;4.32;;;2.03;;
23718;SDS011;43322;52.230;5.702;2022-12-29T04:10:20;3.88;;;1.50;;
23718;SDS011;43322;52.230;5.702;2022-12-29T04:12:47;2.75;;;1.25;;
23718;SDS011;43322;52.230;5.702;2022-12-29T04:15:13;3.08;;;1.60;;
23718;SDS011;43322;52.230;5.702;2022-12-29T04:17:40;4.07;;;1.70;;
23718;SDS011;43322;52.230;5.702;2022-12-29T04:20:07;1.58;;;1.30;;
23718;SDS011;43322;52.230;5.702;2022-12-29T04:22:58;2.58;;;1.60;;
23718;SDS011;43322;52.230;5.702;2022-12-29T04:25:26;3.15;;;1.40;;
23718;SDS011;43322;52.230;5.702;2022-12-29T04:27:52;1.98;;;1.50;;
23718;SDS011;43322;52.230;5.702;2022-12-29T04:30:19;1.67;;;1.58;;
23718;SDS011;43322;52.230;5.702;2022-12-29T04:32:46;1.73;;;1.63;;
23718;SDS011;43322;52.230;5.702;2022-12-29T04:35:13;3.38;;;1.83;;
23718;SDS011;43322;52.230;5.702;2022-12-29T04:37:39;4.40;;;1.80;;
23718;SDS011;43322;52.230;5.702;2022-12-29T04:40:09;3.35;;;1.50;;
23718;SDS011;43322;52.230;5.702;2022-12-29T04:42:36;3.92;;;1.65;;
23718;SDS011;43322;52.230;5.702;2022-12-29T04:45:03;3.30;;;1.65;;
23718;SDS011;43322;52.230;5.702;2022-12-29T04:47:31;2.95;;;1.40;;
23718;SDS011;43322;52.230;5.702;2022-12-29T04:49:58;2.50;;;1.75;;
23718;SDS011;43322;52.230;5.702;2022-12-29T04:52:25;6.18;;;1.30;;
23718;SDS011;43322;52.230;5.702;2022-12-29T04:54:51;4.05;;;1.27;;
23718;SDS011;43322;52.230;5.702;2022-12-29T04:57:19;5.03;;;1.33;;
23718;SDS011;43322;52.230;5.702;2022-12-29T04:59:46;4.25;;;1.27;;
23718;SDS011;43322;52.230;5.702;2022-12-29T05:02:15;4.18;;;1.33;;
23718;SDS011;43322;52.230;5.702;2022-12-29T05:04:42;4.60;;;1.08;;
23718;SDS011;43322;52.230;5.702;2022-12-29T05:07:08;10.65;;;1.92;;
23718;SDS011;43322;52.230;5.702;2022-12-29T05:09:35;4.55;;;1.33;;
23718;SDS011;43322;52.230;5.702;2022-12-29T05:12:02;4.22;;;1.30;;
23718;SDS011;43322;52.230;5.702;2022-12-29T05:14:31;9.50;;;1.90;;
23718;SDS011;43322;52.230;5.702;2022-12-29T05:16:58;5.72;;;1.50;;
23718;SDS011;43322;52.230;5.702;2022-12-29T05:19:25;3.05;;;1.42;;
23718;SDS011;43322;52.230;5.702;2022-12-29T05:21:51;8.27;;;1.60;;
23718;SDS011;43322;52.230;5.702;2022-12-29T05:24:19;4.82;;;1.80;;
23718;SDS011;43322;52.230;5.702;2022-12-29T05:26:46;9.25;;;1.85;;
23718;SDS011;43322;52.230;5.702;2022-12-29T05:29:12;8.98;;;1.70;;
23718;SDS011;43322;52.230;5.702;2022-12-29T05:31:41;7.05;;;1.65;;
23718;SDS011;43322;52.230;5.702;2022-12-29T05:34:08;5.57;;;1.80;;
23718;SDS011;43322;52.230;5.702;2022-12-29T05:36:36;6.53;;;1.48;;
23718;SDS011;43322;52.230;5.702;2022-12-29T05:39:03;11.98;;;2.13;;
23718;SDS011;43322;52.230;5.702;2022-12-29T05:41:32;9.30;;;1.73;;
23718;SDS011;43322;52.230;5.702;2022-12-29T05:43:59;7.28;;;1.80;;
23718;SDS011;43322;52.230;5.702;2022-12-29T05:46:26;6.80;;;1.73;;
23718;SDS011;43322;52.230;5.702;2022-12-29T05:48:55;12.32;;;2.15;;
23718;SDS011;43322;52.230;5.702;2022-12-29T05:51:22;8.02;;;1.75;;
23718;SDS011;43322;52.230;5.702;2022-12-29T05:53:49;7.82;;;1.90;;
23718;SDS011;43322;52.230;5.702;2022-12-29T05:56:16;9.40;;;2.05;;
23718;SDS011;43322;52.230;5.702;2022-12-29T05:58:43;7.40;;;2.22;;
23718;SDS011;43322;52.230;5.702;2022-12-29T06:01:09;10.57;;;2.20;;
23718;SDS011;43322;52.230;5.702;2022-12-29T06:03:36;10.98;;;2.20;;
23718;SDS011;43322;52.230;5.702;2022-12-29T06:06:04;7.32;;;1.90;;
23718;SDS011;43322;52.230;5.702;2022-12-29T06:08:32;8.27;;;1.98;;
23718;SDS011;43322;52.230;5.702;2022-12-29T06:10:58;8.10;;;1.92;;
23718;SDS011;43322;52.230;5.702;2022-12-29T06:13:25;6.10;;;1.60;;
23718;SDS011;43322;52.230;5.702;2022-12-29T06:15:52;11.30;;;1.80;;
23718;SDS011;43322;52.230;5.702;2022-12-29T06:18:19;8.35;;;2.05;;
23718;SDS011;43322;52.230;5.702;2022-12-29T06:20:46;7.20;;;2.08;;
23718;SDS011;43322;52.230;5.702;2022-12-29T06:23:15;7.13;;;2.15;;
23718;SDS011;43322;52.230;5.702;2022-12-29T06:25:43;8.60;;;2.03;;
23718;SDS011;43322;52.230;5.702;2022-12-29T06:28:10;6.45;;;1.75;;
23718;SDS011;43322;52.230;5.702;2022-12-29T06:30:36;9.60;;;2.38;;
23718;SDS011;43322;52.230;5.702;2022-12-29T06:33:03;8.18;;;2.10;;
23718;SDS011;43322;52.230;5.702;2022-12-29T06:35:33;11.18;;;2.13;;
23718;SDS011;43322;52.230;5.702;2022-12-29T06:37:59;20.00;;;2.53;;
23718;SDS011;43322;52.230;5.702;2022-12-29T06:40:27;6.68;;;1.48;;
23718;SDS011;43322;52.230;5.702;2022-12-29T06:42:54;5.70;;;1.70;;
23718;SDS011;43322;52.230;5.702;2022-12-29T06:45:21;5.93;;;2.05;;
23718;SDS011;43322;52.230;5.702;2022-12-29T06:47:48;9.68;;;2.60;;
23718;SDS011;43322;52.230;5.702;2022-12-29T06:50:15;5.32;;;1.70;;
23718;SDS011;43322;52.230;5.702;2022-12-29T06:52:42;7.22;;;2.17;;
23718;SDS011;43322;52.230;5.702;2022-12-29T06:55:08;8.65;;;2.40;;
23718;SDS011;43322;52.230;5.702;2022-12-29T06:57:37;9.80;;;1.92;;
23718;SDS011;43322;52.230;5.702;2022-12-29T07:00:04;8.18;;;1.98;;
23718;SDS011;43322;52.230;5.702;2022-12-29T07:02:31;8.95;;;1.88;;
23718;SDS011;43322;52.230;5.702;2022-12-29T07:04:58;7.10;;;2.42;;
23718;SDS011;43322;52.230;5.702;2022-12-29T07:07:25;10.20;;;2.42;;
23718;SDS011;43322;52.230;5.702;2022-12-29T07:09:51;8.25;;;2.22;;
23718;SDS011;43322;52.230;5.702;2022-12-29T07:12:18;8.10;;;2.10;;
23718;SDS011;43322;52.230;5.702;2022-12-29T07:14:46;10.45;;;1.90;;
23718;SDS011;43322;52.230;5.702;2022-12-29T07:17:13;11.48;;;2.45;;
23718;SDS011;43322;52.230;5.702;2022-12-29T07:19:40;15.25;;;3.33;;
23718;SDS011;43322;52.230;5.702;2022-12-29T07:22:07;13.05;;;2.65;;
23718;SDS011;43322;52.230;5.702;2022-12-29T07:24:35;10.77;;;2.65;;
23718;SDS011;43322;52.230;5.702;2022-12-29T07:27:02;12.32;;;2.67;;
23718;SDS011;43322;52.230;5.702;2022-12-29T07:29:29;5.75;;;1.85;;
23718;SDS011;43322;52.230;5.702;2022-12-29T07:31:57;12.38;;;2.17;;
23718;SDS011;43322;52.230;5.702;2022-12-29T07:34:24;4.55;;;1.63;;
23718;SDS011;43322;52.230;5.702;2022-12-29T07:36:51;8.52;;;1.75;;
23718;SDS011;43322;52.230;5.702;2022-12-29T07:39:17;7.47;;;1.67;;
23718;SDS011;43322;52.230;5.702;2022-12-29T07:41:44;8.95;;;2.10;;
23718;SDS011;43322;52.230;5.702;2022-12-29T07:44:11;8.07;;;1.55;;
23718;SDS011;43322;52.230;5.702;2022-12-29T07:46:37;4.47;;;2.30;;
23718;SDS011;43322;52.230;5.702;2022-12-29T07:49:06;5.63;;;1.45;;
23718;SDS011;43322;52.230;5.702;2022-12-29T07:51:32;10.75;;;2.28;;
23718;SDS011;43322;52.230;5.702;2022-12-29T07:54:00;5.93;;;1.63;;
23718;SDS011;43322;52.230;5.702;2022-12-29T07:56:27;7.13;;;2.03;;
23718;SDS011;43322;52.230;5.702;2022-12-29T07:58:54;6.05;;;2.13;;
23718;SDS011;43322;52.230;5.702;2022-12-29T08:01:21;7.20;;;2.33;;
23718;SDS011;43322;52.230;5.702;2022-12-29T08:03:48;5.88;;;1.80;;
23718;SDS011;43322;52.230;5.702;2022-12-29T08:06:16;9.18;;;3.05;;
23718;SDS011;43322;52.230;5.702;2022-12-29T08:08:43;6.65;;;1.90;;
23718;SDS011;43322;52.230;5.702;2022-12-29T08:11:10;6.40;;;2.03;;
23718;SDS011;43322;52.230;5.702;2022-12-29T08:13:37;7.07;;;2.35;;
23718;SDS011;43322;52.230;5.702;2022-12-29T08:16:04;8.40;;;2.22;;
23718;SDS011;43322;52.230;5.702;2022-12-29T08:18:31;7.45;;;2.15;;
23718;SDS011;43322;52.230;5.702;2022-12-29T08:21:00;9.93;;;2.22;;
23718;SDS011;43322;52.230;5.702;2022-12-29T08:23:29;11.77;;;2.47;;
23718;SDS011;43322;52.230;5.702;2022-12-29T08:25:57;10.88;;;2.83;;
23718;SDS011;43322;52.230;5.702;2022-12-29T08:28:24;5.88;;;2.22;;
23718;SDS011;43322;52.230;5.702;2022-12-29T08:30:51;8.52;;;2.35;;
23718;SDS011;43322;52.230;5.702;2022-12-29T08:33:18;5.00;;;2.13;;
23718;SDS011;43322;52.230;5.702;2022-12-29T08:35:45;6.75;;;2.03;;
23718;SDS011;43322;52.230;5.702;2022-12-29T08:38:12;10.88;;;2.17;;
23718;SDS011;43322;52.230;5.702;2022-12-29T08:40:40;10.35;;;3.03;;
23718;SDS011;43322;52.230;5.702;2022-12-29T08:43:07;12.20;;;2.20;;
23718;SDS011;43322;52.230;5.702;2022-12-29T08:45:33;10.38;;;2.67;;
23718;SDS011;43322;52.230;5.702;2022-12-29T08:48:01;10.18;;;2.47;;
23718;SDS011;43322;52.230;5.702;2022-12-29T08:50:28;10.27;;;2.50;;
23718;SDS011;43322;52.230;5.702;2022-12-29T08:52:55;11.57;;;2.00;;
23718;SDS011;43322;52.230;5.702;2022-12-29T08:55:22;5.70;;;1.92;;
23718;SDS011;43322;52.230;5.702;2022-12-29T08:57:50;8.15;;;1.83;;
23718;SDS011;43322;52.230;5.702;2022-12-29T09:00:17;9.85;;;2.08;;
23718;SDS011;43322;52.230;5.702;2022-12-29T09:02:45;12.52;;;2.30;;
23718;SDS011;43322;52.230;5.702;2022-12-29T09:05:12;8.63;;;2.45;;
23718;SDS011;43322;52.230;5.702;2022-12-29T09:07:39;8.55;;;2.05;;
23718;SDS011;43322;52.230;5.702;2022-12-29T09:10:06;6.88;;;2.10;;
23718;SDS011;43322;52.230;5.702;2022-12-29T09:12:33;12.05;;;1.98;;
23718;SDS011;43322;52.230;5.702;2022-12-29T09:15:05;5.22;;;1.60;;
23718;SDS011;43322;52.230;5.702;2022-12-29T09:17:33;9.35;;;2.58;;
23718;SDS011;43322;52.230;5.702;2022-12-29T09:20:12;9.25;;;2.05;;
23718;SDS011;43322;52.230;5.702;2022-12-29T09:22:41;11.75;;;2.13;;
23718;SDS011;43322;52.230;5.702;2022-12-29T09:25:08;6.20;;;1.88;;
23718;SDS011;43322;52.230;5.702;2022-12-29T09:27:36;7.72;;;2.13;;
23718;SDS011;43322;52.230;5.702;2022-12-29T09:30:05;10.00;;;2.13;;
23718;SDS011;43322;52.230;5.702;2022-12-29T09:32:34;10.93;;;1.83;;
23718;SDS011;43322;52.230;5.702;2022-12-29T09:35:00;8.35;;;2.10;;
23718;SDS011;43322;52.230;5.702;2022-12-29T09:37:27;11.38;;;2.30;;
23718;SDS011;43322;52.230;5.702;2022-12-29T09:39:54;10.80;;;1.98;;
23718;SDS011;43322;52.230;5.702;2022-12-29T09:42:23;9.82;;;2.38;;
23718;SDS011;43322;52.230;5.702;2022-12-29T09:44:57;9.95;;;2.50;;
23718;SDS011;43322;52.230;5.702;2022-12-29T09:47:33;7.50;;;2.35;;
23718;SDS011;43322;52.230;5.702;2022-12-29T09:50:01;9.15;;;1.95;;
23718;SDS011;43322;52.230;5.702;2022-12-29T09:52:31;5.68;;;2.25;;
23718;SDS011;43322;52.230;5.702;2022-12-29T09:55:02;10.38;;;2.45;;
23718;SDS011;43322;52.230;5.702;2022-12-29T09:57:32;11.07;;;2.15;;
23718;SDS011;43322;52.230;5.702;2022-12-29T10:00:03;6.32;;;2.38;;
23718;SDS011;43322;52.230;5.702;2022-12-29T10:02:38;12.75;;;2.70;;
23718;SDS011;43322;52.230;5.702;2022-12-29T10:08:00;5.07;;;2.20;;
23718;SDS011;43322;52.230;5.702;2022-12-29T10:10:38;9.77;;;2.63;;
23718;SDS011;43322;52.230;5.702;2022-12-29T10:13:14;8.00;;;2.03;;
23718;SDS011;43322;52.230;5.702;2022-12-29T10:15:51;10.35;;;2.33;;
23718;SDS011;43322;52.230;5.702;2022-12-29T10:21:17;13.57;;;3.20;;
23718;SDS011;43322;52.230;5.702;2022-12-29T10:23:55;9.43;;;2.78;;
23718;SDS011;43322;52.230;5.702;2022-12-29T10:26:24;11.07;;;2.58;;
23718;SDS011;43322;52.230;5.702;2022-12-29T10:28:55;5.63;;;2.20;;
23718;SDS011;43322;52.230;5.702;2022-12-29T10:31:28;6.93;;;2.58;;
23718;SDS011;43322;52.230;5.702;2022-12-29T10:34:00;6.60;;;2.20;;
23718;SDS011;43322;52.230;5.702;2022-12-29T10:36:33;5.88;;;2.17;;
23718;SDS011;43322;52.230;5.702;2022-12-29T10:39:05;7.18;;;2.25;;
23718;SDS011;43322;52.230;5.702;2022-12-29T10:41:41;7.95;;;2.40;;
23718;SDS011;43322;52.230;5.702;2022-12-29T10:44:15;11.10;;;2.28;;
23718;SDS011;43322;52.230;5.702;2022-12-29T10:46:48;5.43;;;2.13;;
23718;SDS011;43322;52.230;5.702;2022-12-29T10:49:21;7.05;;;2.83;;
23718;SDS011;43322;52.230;5.702;2022-12-29T10:51:51;6.18;;;1.92;;
23718;SDS011;43322;52.230;5.702;2022-12-29T10:54:23;8.68;;;2.03;;
23718;SDS011;43322;52.230;5.702;2022-12-29T10:56:54;3.35;;;2.08;;
23718;SDS011;43322;52.230;5.702;2022-12-29T10:59:26;8.05;;;2.20;;
23718;SDS011;43322;52.230;5.702;2022-12-29T11:01:58;6.97;;;2.47;;
23718;SDS011;43322;52.230;5.702;2022-12-29T11:04:41;6.30;;;2.22;;
23718;SDS011;43322;52.230;5.702;2022-12-29T11:07:15;8.68;;;2.53;;
23718;SDS011;43322;52.230;5.702;2022-12-29T11:09:43;10.80;;;2.78;;
23718;SDS011;43322;52.230;5.702;2022-12-29T11:12:21;10.63;;;2.80;;
23718;SDS011;43322;52.230;5.702;2022-12-29T11:15:11;7.80;;;2.58;;
23718;SDS011;43322;52.230;5.702;2022-12-29T11:17:46;10.05;;;3.10;;
23718;SDS011;43322;52.230;5.702;2022-12-29T11:23:05;8.93;;;3.53;;
23718;SDS011;43322;52.230;5.702;2022-12-29T11:25:51;15.40;;;3.85;;
23718;SDS011;43322;52.230;5.702;2022-12-29T11:28:33;12.93;;;6.22;;
23718;SDS011;43322;52.230;5.702;2022-12-29T11:31:00;14.40;;;3.60;;
23718;SDS011;43322;52.230;5.702;2022-12-29T11:33:29;7.70;;;3.33;;
23718;SDS011;43322;52.230;5.702;2022-12-29T11:35:57;8.07;;;3.08;;
23718;SDS011;43322;52.230;5.702;2022-12-29T11:38:25;11.73;;;5.32;;
23718;SDS011;43322;52.230;5.702;2022-12-29T11:40:58;33.10;;;16.17;;
23718;SDS011;43322;52.230;5.702;2022-12-29T11:43:26;30.67;;;11.95;;
23718;SDS011;43322;52.230;5.702;2022-12-29T11:45:58;15.73;;;5.10;;
23718;SDS011;43322;52.230;5.702;2022-12-29T11:48:31;15.90;;;3.95;;
23718;SDS011;43322;52.230;5.702;2022-12-29T11:51:00;18.00;;;4.57;;
23718;SDS011;43322;52.230;5.702;2022-12-29T11:53:27;15.40;;;7.30;;
23718;SDS011;43322;52.230;5.702;2022-12-29T11:55:58;19.95;;;6.93;;
23718;SDS011;43322;52.230;5.702;2022-12-29T11:58:28;18.85;;;6.40;;
23718;SDS011;43322;52.230;5.702;2022-12-29T12:00:57;18.25;;;4.57;;
23718;SDS011;43322;52.230;5.702;2022-12-29T12:03:27;16.27;;;3.85;;
23718;SDS011;43322;52.230;5.702;2022-12-29T12:05:58;16.48;;;5.20;;
23718;SDS011;43322;52.230;5.702;2022-12-29T12:08:30;19.73;;;4.25;;
23718;SDS011;43322;52.230;5.702;2022-12-29T12:11:04;17.20;;;4.85;;
23718;SDS011;43322;52.230;5.702;2022-12-29T12:13:38;17.25;;;3.60;;
23718;SDS011;43322;52.230;5.702;2022-12-29T12:16:09;13.32;;;3.78;;
23718;SDS011;43322;52.230;5.702;2022-12-29T12:18:44;15.77;;;5.45;;
23718;SDS011;43322;52.230;5.702;2022-12-29T12:21:16;17.60;;;3.80;;
23718;SDS011;43322;52.230;5.702;2022-12-29T12:24:01;12.55;;;3.42;;
23718;SDS011;43322;52.230;5.702;2022-12-29T12:26:45;12.25;;;3.55;;
23718;SDS011;43322;52.230;5.702;2022-12-29T12:29:32;16.77;;;3.90;;
23718;SDS011;43322;52.230;5.702;2022-12-29T12:32:05;19.25;;;3.92;;
23718;SDS011;43322;52.230;5.702;2022-12-29T12:34:42;14.65;;;3.42;;
23718;SDS011;43322;52.230;5.702;2022-12-29T12:43:11;18.65;;;3.83;;
23718;SDS011;43322;52.230;5.702;2022-12-29T12:45:49;15.70;;;3.50;;
23718;SDS011;43322;52.230;5.702;2022-12-29T12:48:36;13.18;;;2.85;;
23718;SDS011;43322;52.230;5.702;2022-12-29T12:51:24;8.20;;;3.10;;
23718;SDS011;43322;52.230;5.702;2022-12-29T12:54:01;12.07;;;3.58;;
23718;SDS011;43322;52.230;5.702;2022-12-29T12:56:45;14.45;;;3.75;;
23718;SDS011;43322;52.230;5.702;2022-12-29T12:59:23;12.02;;;3.85;;
23718;SDS011;43322;52.230;5.702;2022-12-29T13:02:00;16.88;;;4.00;;
23718;SDS011;43322;52.230;5.702;2022-12-29T13:04:45;12.20;;;3.80;;
23718;SDS011;43322;52.230;5.702;2022-12-29T13:07:27;15.95;;;3.80;;
23718;SDS011;43322;52.230;5.702;2022-12-29T13:10:12;12.45;;;3.45;;
23718;SDS011;43322;52.230;5.702;2022-12-29T13:12:47;15.30;;;3.58;;
23718;SDS011;43322;52.230;5.702;2022-12-29T13:15:25;21.67;;;7.88;;
23718;SDS011;43322;52.230;5.702;2022-12-29T13:18:07;54.75;;;27.75;;
23718;SDS011;43322;52.230;5.702;2022-12-29T13:20:43;12.27;;;5.50;;
23718;SDS011;43322;52.230;5.702;2022-12-29T13:23:16;14.85;;;4.78;;
23718;SDS011;43322;52.230;5.702;2022-12-29T13:25:53;15.40;;;4.38;;
23718;SDS011;43322;52.230;5.702;2022-12-29T13:28:29;22.85;;;4.68;;
23718;SDS011;43322;52.230;5.702;2022-12-29T13:31:03;16.55;;;4.50;;
23718;SDS011;43322;52.230;5.702;2022-12-29T13:33:35;13.73;;;3.90;;
23718;SDS011;43322;52.230;5.702;2022-12-29T13:36:09;13.25;;;3.72;;
23718;SDS011;43322;52.230;5.702;2022-12-29T13:38:50;17.25;;;4.22;;
23718;SDS011;43322;52.230;5.702;2022-12-29T13:41:25;14.13;;;3.65;;
23718;SDS011;43322;52.230;5.702;2022-12-29T13:43:56;17.10;;;3.60;;
23718;SDS011;43322;52.230;5.702;2022-12-29T13:46:26;16.48;;;4.10;;
23718;SDS011;43322;52.230;5.702;2022-12-29T13:48:56;16.45;;;3.70;;
23718;SDS011;43322;52.230;5.702;2022-12-29T13:51:26;17.70;;;3.70;;
23718;SDS011;43322;52.230;5.702;2022-12-29T13:53:59;15.27;;;3.70;;
23718;SDS011;43322;52.230;5.702;2022-12-29T13:56:32;13.13;;;3.33;;
23718;SDS011;43322;52.230;5.702;2022-12-29T13:59:05;17.23;;;3.20;;
23718;SDS011;43322;52.230;5.702;2022-12-29T14:01:43;13.50;;;3.63;;
23718;SDS011;43322;52.230;5.702;2022-12-29T14:04:21;19.95;;;4.45;;
23718;SDS011;43322;52.230;5.702;2022-12-29T14:06:57;14.93;;;3.92;;
23718;SDS011;43322;52.230;5.702;2022-12-29T14:09:32;14.15;;;3.55;;
23718;SDS011;43322;52.230;5.702;2022-12-29T14:12:18;19.55;;;3.75;;
23718;SDS011;43322;52.230;5.702;2022-12-29T14:14:53;9.55;;;3.65;;
23718;SDS011;43322;52.230;5.702;2022-12-29T14:17:20;13.20;;;3.95;;
23718;SDS011;43322;52.230;5.702;2022-12-29T14:19:51;13.07;;;4.03;;
23718;SDS011;43322;52.230;5.702;2022-12-29T14:22:23;10.25;;;3.40;;
23718;SDS011;43322;52.230;5.702;2022-12-29T14:24:52;14.50;;;4.32;;
23718;SDS011;43322;52.230;5.702;2022-12-29T14:33:13;21.92;;;10.50;;
23718;SDS011;43322;52.230;5.702;2022-12-29T14:35:43;20.95;;;5.20;;
23718;SDS011;43322;52.230;5.702;2022-12-29T14:38:18;13.38;;;5.82;;
23718;SDS011;43322;52.230;5.702;2022-12-29T14:40:49;9.80;;;3.55;;
23718;SDS011;43322;52.230;5.702;2022-12-29T14:43:19;16.80;;;4.13;;
23718;SDS011;43322;52.230;5.702;2022-12-29T14:45:52;7.20;;;2.60;;
23718;SDS011;43322;52.230;5.702;2022-12-29T14:48:35;10.63;;;3.13;;
23718;SDS011;43322;52.230;5.702;2022-12-29T14:51:17;8.25;;;2.75;;
23718;SDS011;43322;52.230;5.702;2022-12-29T14:53:47;9.68;;;3.10;;
23718;SDS011;43322;52.230;5.702;2022-12-29T14:56:17;6.95;;;2.33;;
23718;SDS011;43322;52.230;5.702;2022-12-29T14:58:46;7.93;;;2.25;;
23718;SDS011;43322;52.230;5.702;2022-12-29T15:01:17;4.18;;;1.77;;
23718;SDS011;43322;52.230;5.702;2022-12-29T15:03:54;5.53;;;1.75;;
23718;SDS011;43322;52.230;5.702;2022-12-29T15:06:27;7.85;;;1.40;;
23718;SDS011;43322;52.230;5.702;2022-12-29T15:08:59;5.40;;;1.48;;
23718;SDS011;43322;52.230;5.702;2022-12-29T15:11:41;4.40;;;1.45;;
23718;SDS011;43322;52.230;5.702;2022-12-29T15:14:28;6.53;;;1.40;;
23718;SDS011;43322;52.230;5.702;2022-12-29T15:17:00;5.20;;;1.58;;
23718;SDS011;43322;52.230;5.702;2022-12-29T15:19:34;4.13;;;1.80;;
23718;SDS011;43322;52.230;5.702;2022-12-29T15:22:01;4.72;;;1.67;;
23718;SDS011;43322;52.230;5.702;2022-12-29T15:24:28;8.80;;;2.35;;
23718;SDS011;43322;52.230;5.702;2022-12-29T15:26:57;2.38;;;2.15;;
23718;SDS011;43322;52.230;5.702;2022-12-29T15:29:36;6.95;;;2.60;;
23718;SDS011;43322;52.230;5.702;2022-12-29T15:32:15;6.55;;;2.35;;
23718;SDS011;43322;52.230;5.702;2022-12-29T15:34:45;5.13;;;2.28;;